sensor_id;sensor_type;location;lat;lon;timestamp;P1;durP1;ratioP1;P2;durP2;ratioP2
78116;SDS011;69042;59.120;37.904;2023-05-23T00:02:10;20.80;;;12.55;;
78116;SDS011;69042;59.120;37.904;2023-05-23T00:04:38;23.38;;;13.07;;
78116;SDS011;69042;59.120;37.904;2023-05-23T00:07:04;21.77;;;13.43;;
78116;SDS011;69042;59.120;37.904;2023-05-23T00:09:30;26.42;;;14.90;;
78116;SDS011;69042;59.120;37.904;2023-05-23T00:11:56;26.80;;;15.77;;
78116;SDS011;69042;59.120;37.904;2023-05-23T00:14:22;29.80;;;16.38;;
78116;SDS011;69042;59.120;37.904;2023-05-23T00:16:48;30.38;;;17.10;;
78116;SDS011;69042;59.120;37.904;2023-05-23T00:19:15;26.85;;;17.02;;
78116;SDS011;69042;59.120;37.904;2023-05-23T00:21:41;29.27;;;16.85;;
78116;SDS011;69042;59.120;37.904;2023-05-23T00:24:08;27.73;;;17.70;;
78116;SDS011;69042;59.120;37.904;2023-05-23T00:26:35;29.15;;;16.80;;
78116;SDS011;69042;59.120;37.904;2023-05-23T00:29:01;25.15;;;15.75;;
78116;SDS011;69042;59.120;37.904;2023-05-23T00:31:27;29.50;;;16.88;;
78116;SDS011;69042;59.120;37.904;2023-05-23T00:33:53;26.92;;;17.20;;
78116;SDS011;69042;59.120;37.904;2023-05-23T00:36:19;29.08;;;17.27;;
78116;SDS011;69042;59.120;37.904;2023-05-23T00:38:47;25.80;;;15.43;;
78116;SDS011;69042;59.120;37.904;2023-05-23T00:41:14;25.13;;;17.25;;
78116;SDS011;69042;59.120;37.904;2023-05-23T00:43:40;25.90;;;16.52;;
78116;SDS011;69042;59.120;37.904;2023-05-23T00:46:07;28.45;;;16.08;;
78116;SDS011;69042;59.120;37.904;2023-05-23T00:48:34;23.40;;;16.08;;
78116;SDS011;69042;59.120;37.904;2023-05-23T00:51:03;23.67;;;14.93;;
78116;SDS011;69042;59.120;37.904;2023-05-23T00:53:30;23.08;;;15.57;;
78116;SDS011;69042;59.120;37.904;2023-05-23T00:55:56;20.73;;;15.40;;
78116;SDS011;69042;59.120;37.904;2023-05-23T00:58:22;23.45;;;16.02;;
78116;SDS011;69042;59.120;37.904;2023-05-23T01:00:49;21.75;;;15.93;;
78116;SDS011;69042;59.120;37.904;2023-05-23T01:03:19;22.65;;;16.13;;
78116;SDS011;69042;59.120;37.904;2023-05-23T01:05:45;19.65;;;15.90;;
78116;SDS011;69042;59.120;37.904;2023-05-23T01:08:11;20.58;;;15.02;;
78116;SDS011;69042;59.120;37.904;2023-05-23T01:10:37;21.10;;;14.18;;
78116;SDS011;69042;59.120;37.904;2023-05-23T01:20:39;15.15;;;10.73;;
78116;SDS011;69042;59.120;37.904;2023-05-23T01:23:24;20.60;;;13.13;;
78116;SDS011;69042;59.120;37.904;2023-05-23T01:26:03;20.92;;;12.82;;
78116;SDS011;69042;59.120;37.904;2023-05-23T01:28:48;20.23;;;11.45;;
78116;SDS011;69042;59.120;37.904;2023-05-23T01:31:19;15.35;;;11.52;;
78116;SDS011;69042;59.120;37.904;2023-05-23T01:33:49;16.90;;;10.98;;
78116;SDS011;69042;59.120;37.904;2023-05-23T01:36:17;16.42;;;11.30;;
78116;SDS011;69042;59.120;37.904;2023-05-23T01:38:44;17.40;;;10.82;;
78116;SDS011;69042;59.120;37.904;2023-05-23T01:41:10;15.60;;;10.60;;
78116;SDS011;69042;59.120;37.904;2023-05-23T01:43:36;13.88;;;9.65;;
78116;SDS011;69042;59.120;37.904;2023-05-23T01:46:03;14.70;;;9.88;;
78116;SDS011;69042;59.120;37.904;2023-05-23T01:48:31;14.88;;;9.93;;
78116;SDS011;69042;59.120;37.904;2023-05-23T01:50:58;15.07;;;9.25;;
78116;SDS011;69042;59.120;37.904;2023-05-23T01:53:24;15.75;;;9.32;;
78116;SDS011;69042;59.120;37.904;2023-05-23T01:55:52;15.27;;;10.02;;
78116;SDS011;69042;59.120;37.904;2023-05-23T01:58:20;14.95;;;10.18;;
78116;SDS011;69042;59.120;37.904;2023-05-23T02:00:46;14.38;;;9.88;;
78116;SDS011;69042;59.120;37.904;2023-05-23T02:03:12;14.63;;;9.32;;
78116;SDS011;69042;59.120;37.904;2023-05-23T02:05:39;14.85;;;8.88;;
78116;SDS011;69042;59.120;37.904;2023-05-23T02:08:05;13.57;;;9.40;;
78116;SDS011;69042;59.120;37.904;2023-05-23T02:10:31;13.18;;;9.52;;
78116;SDS011;69042;59.120;37.904;2023-05-23T02:12:59;15.55;;;9.00;;
78116;SDS011;69042;59.120;37.904;2023-05-23T02:15:27;11.85;;;8.60;;
78116;SDS011;69042;59.120;37.904;2023-05-23T02:17:53;14.18;;;8.93;;
78116;SDS011;69042;59.120;37.904;2023-05-23T02:20:19;14.15;;;8.32;;
78116;SDS011;69042;59.120;37.904;2023-05-23T02:22:47;12.18;;;8.38;;
78116;SDS011;69042;59.120;37.904;2023-05-23T02:25:13;12.57;;;8.50;;
78116;SDS011;69042;59.120;37.904;2023-05-23T02:27:40;13.63;;;9.23;;
78116;SDS011;69042;59.120;37.904;2023-05-23T02:30:06;12.80;;;8.23;;
78116;SDS011;69042;59.120;37.904;2023-05-23T02:32:33;26.88;;;9.02;;
78116;SDS011;69042;59.120;37.904;2023-05-23T02:35:00;14.73;;;9.23;;
78116;SDS011;69042;59.120;37.904;2023-05-23T02:37:26;13.48;;;8.93;;
78116;SDS011;69042;59.120;37.904;2023-05-23T02:39:52;13.60;;;9.30;;
78116;SDS011;69042;59.120;37.904;2023-05-23T02:42:18;13.23;;;9.32;;
78116;SDS011;69042;59.120;37.904;2023-05-23T02:44:44;14.13;;;9.68;;
78116;SDS011;69042;59.120;37.904;2023-05-23T02:47:10;13.02;;;9.45;;
78116;SDS011;69042;59.120;37.904;2023-05-23T02:49:36;18.20;;;9.93;;
78116;SDS011;69042;59.120;37.904;2023-05-23T02:52:03;13.73;;;9.68;;
78116;SDS011;69042;59.120;37.904;2023-05-23T02:54:29;14.35;;;9.38;;
78116;SDS011;69042;59.120;37.904;2023-05-23T02:56:55;11.27;;;8.32;;
78116;SDS011;69042;59.120;37.904;2023-05-23T02:59:23;12.40;;;8.23;;
78116;SDS011;69042;59.120;37.904;2023-05-23T03:01:49;11.82;;;8.73;;
78116;SDS011;69042;59.120;37.904;2023-05-23T03:04:15;15.57;;;9.00;;
78116;SDS011;69042;59.120;37.904;2023-05-23T03:06:42;14.10;;;8.35;;
78116;SDS011;69042;59.120;37.904;2023-05-23T03:09:09;13.18;;;7.35;;
78116;SDS011;69042;59.120;37.904;2023-05-23T03:11:35;13.05;;;8.77;;
78116;SDS011;69042;59.120;37.904;2023-05-23T03:14:02;11.48;;;7.93;;
78116;SDS011;69042;59.120;37.904;2023-05-23T03:16:28;10.60;;;7.07;;
78116;SDS011;69042;59.120;37.904;2023-05-23T03:18:54;9.35;;;6.90;;
78116;SDS011;69042;59.120;37.904;2023-05-23T03:21:20;12.43;;;7.38;;
78116;SDS011;69042;59.120;37.904;2023-05-23T03:23:48;9.52;;;6.35;;
78116;SDS011;69042;59.120;37.904;2023-05-23T03:26:15;11.45;;;6.75;;
78116;SDS011;69042;59.120;37.904;2023-05-23T03:28:41;10.32;;;7.10;;
78116;SDS011;69042;59.120;37.904;2023-05-23T03:31:07;11.98;;;6.63;;
78116;SDS011;69042;59.120;37.904;2023-05-23T03:33:33;11.23;;;6.78;;
78116;SDS011;69042;59.120;37.904;2023-05-23T03:35:59;12.30;;;6.70;;
78116;SDS011;69042;59.120;37.904;2023-05-23T03:38:26;10.90;;;6.82;;
78116;SDS011;69042;59.120;37.904;2023-05-23T03:40:52;9.82;;;5.97;;
78116;SDS011;69042;59.120;37.904;2023-05-23T03:43:18;10.73;;;6.45;;
78116;SDS011;69042;59.120;37.904;2023-05-23T03:45:44;10.15;;;6.38;;
78116;SDS011;69042;59.120;37.904;2023-05-23T03:48:13;11.90;;;7.50;;
78116;SDS011;69042;59.120;37.904;2023-05-23T03:50:41;10.10;;;6.65;;
78116;SDS011;69042;59.120;37.904;2023-05-23T03:53:07;10.85;;;7.13;;
78116;SDS011;69042;59.120;37.904;2023-05-23T03:55:34;10.95;;;6.32;;
78116;SDS011;69042;59.120;37.904;2023-05-23T03:58:00;13.02;;;6.90;;
78116;SDS011;69042;59.120;37.904;2023-05-23T04:00:27;9.18;;;6.40;;
78116;SDS011;69042;59.120;37.904;2023-05-23T04:02:53;13.93;;;8.63;;
78116;SDS011;69042;59.120;37.904;2023-05-23T04:05:22;12.55;;;7.28;;
78116;SDS011;69042;59.120;37.904;2023-05-23T04:07:49;10.25;;;6.95;;
78116;SDS011;69042;59.120;37.904;2023-05-23T04:10:17;11.25;;;7.20;;
78116;SDS011;69042;59.120;37.904;2023-05-23T04:12:45;11.82;;;7.32;;
78116;SDS011;69042;59.120;37.904;2023-05-23T04:15:14;11.65;;;7.47;;
78116;SDS011;69042;59.120;37.904;2023-05-23T04:18:00;15.63;;;6.95;;
78116;SDS011;69042;59.120;37.904;2023-05-23T04:20:26;10.38;;;6.90;;
78116;SDS011;69042;59.120;37.904;2023-05-23T04:22:52;11.63;;;6.68;;
78116;SDS011;69042;59.120;37.904;2023-05-23T04:25:19;10.73;;;7.07;;
78116;SDS011;69042;59.120;37.904;2023-05-23T04:27:55;11.93;;;7.40;;
78116;SDS011;69042;59.120;37.904;2023-05-23T04:30:22;15.40;;;7.10;;
78116;SDS011;69042;59.120;37.904;2023-05-23T04:32:48;14.63;;;8.05;;
78116;SDS011;69042;59.120;37.904;2023-05-23T04:35:14;14.68;;;6.97;;
78116;SDS011;69042;59.120;37.904;2023-05-23T04:37:41;12.23;;;6.78;;
78116;SDS011;69042;59.120;37.904;2023-05-23T04:40:07;11.50;;;6.85;;
78116;SDS011;69042;59.120;37.904;2023-05-23T04:42:53;15.43;;;7.60;;
78116;SDS011;69042;59.120;37.904;2023-05-23T04:45:42;12.20;;;6.25;;
78116;SDS011;69042;59.120;37.904;2023-05-23T04:48:35;13.95;;;6.70;;
78116;SDS011;69042;59.120;37.904;2023-05-23T04:51:02;12.00;;;6.80;;
78116;SDS011;69042;59.120;37.904;2023-05-23T04:53:35;9.95;;;6.38;;
78116;SDS011;69042;59.120;37.904;2023-05-23T04:56:02;9.88;;;6.35;;
78116;SDS011;69042;59.120;37.904;2023-05-23T04:58:29;14.60;;;6.50;;
78116;SDS011;69042;59.120;37.904;2023-05-23T05:01:00;10.80;;;6.20;;
78116;SDS011;69042;59.120;37.904;2023-05-23T05:03:26;13.18;;;6.68;;
78116;SDS011;69042;59.120;37.904;2023-05-23T05:05:53;13.10;;;7.13;;
78116;SDS011;69042;59.120;37.904;2023-05-23T05:08:20;11.38;;;6.50;;
78116;SDS011;69042;59.120;37.904;2023-05-23T05:10:46;10.88;;;6.70;;
78116;SDS011;69042;59.120;37.904;2023-05-23T05:13:13;9.95;;;5.75;;
78116;SDS011;69042;59.120;37.904;2023-05-23T05:15:47;15.32;;;6.43;;
78116;SDS011;69042;59.120;37.904;2023-05-23T05:18:13;17.20;;;5.75;;
78116;SDS011;69042;59.120;37.904;2023-05-23T05:20:39;11.93;;;6.28;;
78116;SDS011;69042;59.120;37.904;2023-05-23T05:23:05;11.02;;;5.80;;
78116;SDS011;69042;59.120;37.904;2023-05-23T05:25:35;8.88;;;5.32;;
78116;SDS011;69042;59.120;37.904;2023-05-23T05:28:03;11.25;;;6.28;;
78116;SDS011;69042;59.120;37.904;2023-05-23T05:30:35;12.57;;;6.20;;
78116;SDS011;69042;59.120;37.904;2023-05-23T05:33:02;11.45;;;6.20;;
78116;SDS011;69042;59.120;37.904;2023-05-23T05:35:30;14.63;;;6.28;;
78116;SDS011;69042;59.120;37.904;2023-05-23T05:37:59;12.77;;;5.72;;
78116;SDS011;69042;59.120;37.904;2023-05-23T05:40:27;12.50;;;6.00;;
78116;SDS011;69042;59.120;37.904;2023-05-23T05:42:54;9.85;;;5.72;;
78116;SDS011;69042;59.120;37.904;2023-05-23T05:45:21;9.20;;;5.63;;
78116;SDS011;69042;59.120;37.904;2023-05-23T05:47:57;13.43;;;5.45;;
78116;SDS011;69042;59.120;37.904;2023-05-23T05:50:24;11.38;;;5.68;;
78116;SDS011;69042;59.120;37.904;2023-05-23T05:52:50;10.43;;;5.80;;
78116;SDS011;69042;59.120;37.904;2023-05-23T05:55:16;12.68;;;7.00;;
78116;SDS011;69042;59.120;37.904;2023-05-23T05:57:46;14.48;;;6.90;;
78116;SDS011;69042;59.120;37.904;2023-05-23T06:00:14;11.95;;;5.90;;
78116;SDS011;69042;59.120;37.904;2023-05-23T06:02:50;13.52;;;6.05;;
78116;SDS011;69042;59.120;37.904;2023-05-23T06:05:29;14.32;;;6.95;;
78116;SDS011;69042;59.120;37.904;2023-05-23T06:07:56;16.90;;;6.40;;
78116;SDS011;69042;59.120;37.904;2023-05-23T06:10:22;11.68;;;6.07;;
78116;SDS011;69042;59.120;37.904;2023-05-23T06:12:50;10.25;;;5.38;;
78116;SDS011;69042;59.120;37.904;2023-05-23T06:15:16;12.10;;;4.75;;
78116;SDS011;69042;59.120;37.904;2023-05-23T06:17:42;12.48;;;5.05;;
78116;SDS011;69042;59.120;37.904;2023-05-23T06:20:09;12.38;;;4.70;;
78116;SDS011;69042;59.120;37.904;2023-05-23T06:22:39;14.05;;;5.53;;
78116;SDS011;69042;59.120;37.904;2023-05-23T06:25:05;9.73;;;5.32;;
78116;SDS011;69042;59.120;37.904;2023-05-23T06:27:32;11.65;;;4.90;;
78116;SDS011;69042;59.120;37.904;2023-05-23T06:29:58;12.20;;;5.30;;
78116;SDS011;69042;59.120;37.904;2023-05-23T06:32:24;8.85;;;4.70;;
78116;SDS011;69042;59.120;37.904;2023-05-23T06:34:50;9.73;;;4.57;;
78116;SDS011;69042;59.120;37.904;2023-05-23T06:37:16;9.23;;;4.47;;
78116;SDS011;69042;59.120;37.904;2023-05-23T06:39:42;9.88;;;5.20;;
78116;SDS011;69042;59.120;37.904;2023-05-23T06:42:08;8.57;;;4.20;;
78116;SDS011;69042;59.120;37.904;2023-05-23T06:44:53;10.63;;;4.22;;
78116;SDS011;69042;59.120;37.904;2023-05-23T06:47:19;11.10;;;4.68;;
78116;SDS011;69042;59.120;37.904;2023-05-23T06:49:46;12.65;;;4.78;;
78116;SDS011;69042;59.120;37.904;2023-05-23T06:52:12;7.72;;;4.15;;
78116;SDS011;69042;59.120;37.904;2023-05-23T06:54:38;8.57;;;4.03;;
78116;SDS011;69042;59.120;37.904;2023-05-23T06:57:05;10.55;;;6.10;;
78116;SDS011;69042;59.120;37.904;2023-05-23T06:59:31;8.07;;;4.03;;
78116;SDS011;69042;59.120;37.904;2023-05-23T07:01:57;9.32;;;4.50;;
78116;SDS011;69042;59.120;37.904;2023-05-23T07:04:24;9.32;;;4.03;;
78116;SDS011;69042;59.120;37.904;2023-05-23T07:06:50;10.40;;;4.05;;
78116;SDS011;69042;59.120;37.904;2023-05-23T07:09:17;8.77;;;4.32;;
78116;SDS011;69042;59.120;37.904;2023-05-23T07:11:43;11.52;;;4.05;;
78116;SDS011;69042;59.120;37.904;2023-05-23T07:14:10;12.25;;;4.63;;
78116;SDS011;69042;59.120;37.904;2023-05-23T07:16:41;11.02;;;4.38;;
78116;SDS011;69042;59.120;37.904;2023-05-23T07:19:08;13.32;;;4.50;;
78116;SDS011;69042;59.120;37.904;2023-05-23T07:21:41;12.63;;;4.97;;
78116;SDS011;69042;59.120;37.904;2023-05-23T07:24:07;8.85;;;4.32;;
78116;SDS011;69042;59.120;37.904;2023-05-23T07:26:33;6.95;;;3.78;;
78116;SDS011;69042;59.120;37.904;2023-05-23T07:28:59;12.65;;;4.15;;
78116;SDS011;69042;59.120;37.904;2023-05-23T07:31:26;8.40;;;3.45;;
78116;SDS011;69042;59.120;37.904;2023-05-23T07:33:55;10.05;;;4.20;;
78116;SDS011;69042;59.120;37.904;2023-05-23T07:36:27;7.90;;;3.83;;
78116;SDS011;69042;59.120;37.904;2023-05-23T07:38:57;10.52;;;4.10;;
78116;SDS011;69042;59.120;37.904;2023-05-23T07:41:23;9.93;;;4.80;;
78116;SDS011;69042;59.120;37.904;2023-05-23T07:43:49;8.93;;;4.38;;
78116;SDS011;69042;59.120;37.904;2023-05-23T07:46:17;6.90;;;4.10;;
78116;SDS011;69042;59.120;37.904;2023-05-23T07:48:44;8.75;;;3.83;;
78116;SDS011;69042;59.120;37.904;2023-05-23T07:51:11;6.72;;;3.70;;
78116;SDS011;69042;59.120;37.904;2023-05-23T07:53:37;7.85;;;3.85;;
78116;SDS011;69042;59.120;37.904;2023-05-23T07:56:07;6.75;;;3.72;;
78116;SDS011;69042;59.120;37.904;2023-05-23T07:58:37;9.38;;;3.72;;
78116;SDS011;69042;59.120;37.904;2023-05-23T08:01:03;10.18;;;4.00;;
78116;SDS011;69042;59.120;37.904;2023-05-23T08:03:57;15.02;;;8.10;;
78116;SDS011;69042;59.120;37.904;2023-05-23T08:06:44;9.15;;;4.18;;
78116;SDS011;69042;59.120;37.904;2023-05-23T08:09:12;7.90;;;3.80;;
78116;SDS011;69042;59.120;37.904;2023-05-23T08:11:43;12.32;;;3.63;;
78116;SDS011;69042;59.120;37.904;2023-05-23T08:14:10;8.93;;;3.80;;
78116;SDS011;69042;59.120;37.904;2023-05-23T08:16:36;6.72;;;3.55;;
78116;SDS011;69042;59.120;37.904;2023-05-23T08:19:06;9.90;;;3.80;;
78116;SDS011;69042;59.120;37.904;2023-05-23T08:21:33;10.90;;;3.78;;
78116;SDS011;69042;59.120;37.904;2023-05-23T08:24:01;11.43;;;4.50;;
78116;SDS011;69042;59.120;37.904;2023-05-23T08:26:27;8.07;;;3.90;;
78116;SDS011;69042;59.120;37.904;2023-05-23T08:29:00;9.35;;;4.75;;
78116;SDS011;69042;59.120;37.904;2023-05-23T08:31:27;9.52;;;4.20;;
78116;SDS011;69042;59.120;37.904;2023-05-23T08:33:54;10.57;;;3.50;;
78116;SDS011;69042;59.120;37.904;2023-05-23T08:36:21;6.93;;;3.60;;
78116;SDS011;69042;59.120;37.904;2023-05-23T08:38:48;8.02;;;3.28;;
78116;SDS011;69042;59.120;37.904;2023-05-23T08:41:22;11.15;;;3.90;;
78116;SDS011;69042;59.120;37.904;2023-05-23T08:43:53;7.72;;;3.95;;
78116;SDS011;69042;59.120;37.904;2023-05-23T08:46:25;9.75;;;4.10;;
78116;SDS011;69042;59.120;37.904;2023-05-23T08:48:53;8.75;;;3.50;;
78116;SDS011;69042;59.120;37.904;2023-05-23T08:51:21;9.55;;;3.60;;
78116;SDS011;69042;59.120;37.904;2023-05-23T08:53:49;9.05;;;3.30;;
78116;SDS011;69042;59.120;37.904;2023-05-23T08:56:19;8.90;;;3.92;;
78116;SDS011;69042;59.120;37.904;2023-05-23T08:58:47;9.65;;;4.03;;
78116;SDS011;69042;59.120;37.904;2023-05-23T09:01:17;6.97;;;3.20;;
78116;SDS011;69042;59.120;37.904;2023-05-23T09:03:45;8.05;;;3.20;;
78116;SDS011;69042;59.120;37.904;2023-05-23T09:06:22;7.63;;;3.28;;
78116;SDS011;69042;59.120;37.904;2023-05-23T09:08:49;14.38;;;3.53;;
78116;SDS011;69042;59.120;37.904;2023-05-23T09:11:18;7.45;;;3.80;;
78116;SDS011;69042;59.120;37.904;2023-05-23T09:13:47;11.15;;;3.38;;
78116;SDS011;69042;59.120;37.904;2023-05-23T09:16:16;8.25;;;3.85;;
78116;SDS011;69042;59.120;37.904;2023-05-23T09:18:55;8.88;;;3.10;;
78116;SDS011;69042;59.120;37.904;2023-05-23T09:21:23;10.55;;;3.42;;
78116;SDS011;69042;59.120;37.904;2023-05-23T09:24:12;9.35;;;3.60;;
78116;SDS011;69042;59.120;37.904;2023-05-23T09:26:38;10.32;;;3.47;;
78116;SDS011;69042;59.120;37.904;2023-05-23T09:29:07;12.00;;;3.78;;
78116;SDS011;69042;59.120;37.904;2023-05-23T09:31:34;10.25;;;3.40;;
78116;SDS011;69042;59.120;37.904;2023-05-23T09:34:02;9.93;;;4.32;;
78116;SDS011;69042;59.120;37.904;2023-05-23T09:36:29;7.75;;;3.22;;
78116;SDS011;69042;59.120;37.904;2023-05-23T09:39:00;10.70;;;3.22;;
78116;SDS011;69042;59.120;37.904;2023-05-23T09:41:31;10.23;;;3.08;;
78116;SDS011;69042;59.120;37.904;2023-05-23T09:44:06;7.28;;;3.00;;
78116;SDS011;69042;59.120;37.904;2023-05-23T09:46:34;10.52;;;3.20;;
78116;SDS011;69042;59.120;37.904;2023-05-23T09:49:14;28.42;;;14.90;;
78116;SDS011;69042;59.120;37.904;2023-05-23T09:51:58;9.75;;;3.67;;
78116;SDS011;69042;59.120;37.904;2023-05-23T09:54:26;10.25;;;3.53;;
78116;SDS011;69042;59.120;37.904;2023-05-23T09:56:52;12.70;;;4.07;;
78116;SDS011;69042;59.120;37.904;2023-05-23T09:59:21;8.88;;;3.67;;
78116;SDS011;69042;59.120;37.904;2023-05-23T10:01:50;10.25;;;3.97;;
78116;SDS011;69042;59.120;37.904;2023-05-23T10:04:21;10.48;;;3.80;;
78116;SDS011;69042;59.120;37.904;2023-05-23T10:06:52;14.90;;;4.60;;
78116;SDS011;69042;59.120;37.904;2023-05-23T10:09:22;8.18;;;3.53;;
78116;SDS011;69042;59.120;37.904;2023-05-23T10:14:39;9.73;;;3.97;;
78116;SDS011;69042;59.120;37.904;2023-05-23T10:17:14;13.95;;;4.10;;
78116;SDS011;69042;59.120;37.904;2023-05-23T10:19:52;7.03;;;3.80;;
78116;SDS011;69042;59.120;37.904;2023-05-23T10:22:27;7.38;;;3.92;;
78116;SDS011;69042;59.120;37.904;2023-05-23T10:24:54;11.80;;;3.95;;
78116;SDS011;69042;59.120;37.904;2023-05-23T10:27:20;9.88;;;3.42;;
78116;SDS011;69042;59.120;37.904;2023-05-23T10:29:47;13.02;;;4.00;;
78116;SDS011;69042;59.120;37.904;2023-05-23T10:32:13;6.97;;;3.22;;
78116;SDS011;69042;59.120;37.904;2023-05-23T10:34:49;9.43;;;3.65;;
78116;SDS011;69042;59.120;37.904;2023-05-23T10:37:28;9.07;;;3.50;;
78116;SDS011;69042;59.120;37.904;2023-05-23T10:45:24;6.35;;;3.50;;
78116;SDS011;69042;59.120;37.904;2023-05-23T10:47:50;12.10;;;3.97;;
78116;SDS011;69042;59.120;37.904;2023-05-23T10:50:31;10.40;;;4.05;;
78116;SDS011;69042;59.120;37.904;2023-05-23T10:53:02;7.32;;;3.50;;
78116;SDS011;69042;59.120;37.904;2023-05-23T10:55:35;8.75;;;3.80;;
78116;SDS011;69042;59.120;37.904;2023-05-23T10:58:17;10.40;;;3.72;;
78116;SDS011;69042;59.120;37.904;2023-05-23T11:00:49;8.23;;;3.50;;
78116;SDS011;69042;59.120;37.904;2023-05-23T11:03:17;11.25;;;4.97;;
78116;SDS011;69042;59.120;37.904;2023-05-23T11:05:51;10.38;;;3.90;;
78116;SDS011;69042;59.120;37.904;2023-05-23T11:08:18;12.05;;;4.13;;
78116;SDS011;69042;59.120;37.904;2023-05-23T11:10:55;9.30;;;3.95;;
78116;SDS011;69042;59.120;37.904;2023-05-23T11:13:25;11.07;;;3.92;;
78116;SDS011;69042;59.120;37.904;2023-05-23T11:16:40;9.65;;;3.70;;
78116;SDS011;69042;59.120;37.904;2023-05-23T12:32:14;9.23;;;4.47;;
78116;SDS011;69042;59.120;37.904;2023-05-23T12:34:41;9.75;;;4.43;;
78116;SDS011;69042;59.120;37.904;2023-05-23T12:37:08;9.73;;;3.97;;
78116;SDS011;69042;59.120;37.904;2023-05-23T12:39:35;10.15;;;4.10;;
78116;SDS011;69042;59.120;37.904;2023-05-23T12:42:08;11.73;;;4.20;;
78116;SDS011;69042;59.120;37.904;2023-05-23T12:44:35;18.58;;;6.38;;
78116;SDS011;69042;59.120;37.904;2023-05-23T12:47:02;18.02;;;8.95;;
78116;SDS011;69042;59.120;37.904;2023-05-23T12:49:29;11.18;;;4.20;;
78116;SDS011;69042;59.120;37.904;2023-05-23T12:51:55;15.80;;;3.90;;
78116;SDS011;69042;59.120;37.904;2023-05-23T12:54:21;12.93;;;4.53;;
78116;SDS011;69042;59.120;37.904;2023-05-23T12:56:47;13.85;;;5.32;;
78116;SDS011;69042;59.120;37.904;2023-05-23T12:59:14;9.95;;;4.53;;
78116;SDS011;69042;59.120;37.904;2023-05-23T13:01:40;17.60;;;4.50;;
78116;SDS011;69042;59.120;37.904;2023-05-23T13:04:06;10.85;;;4.35;;
78116;SDS011;69042;59.120;37.904;2023-05-23T13:06:32;14.00;;;4.50;;
78116;SDS011;69042;59.120;37.904;2023-05-23T13:08:59;14.75;;;5.18;;
78116;SDS011;69042;59.120;37.904;2023-05-23T13:11:25;13.95;;;4.88;;
78116;SDS011;69042;59.120;37.904;2023-05-23T13:13:52;13.23;;;4.75;;
78116;SDS011;69042;59.120;37.904;2023-05-23T13:16:18;12.38;;;4.68;;
78116;SDS011;69042;59.120;37.904;2023-05-23T13:18:44;15.88;;;6.13;;
78116;SDS011;69042;59.120;37.904;2023-05-23T13:21:11;15.10;;;4.78;;
78116;SDS011;69042;59.120;37.904;2023-05-23T13:23:37;20.00;;;5.35;;
78116;SDS011;69042;59.120;37.904;2023-05-23T13:26:04;15.45;;;5.32;;
78116;SDS011;69042;59.120;37.904;2023-05-23T13:28:31;10.60;;;4.55;;
78116;SDS011;69042;59.120;37.904;2023-05-23T13:30:58;10.98;;;5.10;;
78116;SDS011;69042;59.120;37.904;2023-05-23T13:33:25;11.25;;;4.18;;
78116;SDS011;69042;59.120;37.904;2023-05-23T13:35:52;12.10;;;4.30;;
78116;SDS011;69042;59.120;37.904;2023-05-23T13:38:19;9.68;;;4.90;;
78116;SDS011;69042;59.120;37.904;2023-05-23T13:40:45;11.57;;;4.53;;
78116;SDS011;69042;59.120;37.904;2023-05-23T13:43:12;14.55;;;4.05;;
78116;SDS011;69042;59.120;37.904;2023-05-23T14:32:50;10.02;;;4.25;;
78116;SDS011;69042;59.120;37.904;2023-05-23T14:35:17;9.95;;;4.03;;
78116;SDS011;69042;59.120;37.904;2023-05-23T14:37:44;9.25;;;3.65;;
78116;SDS011;69042;59.120;37.904;2023-05-23T14:40:11;11.75;;;3.97;;
78116;SDS011;69042;59.120;37.904;2023-05-23T14:42:39;9.57;;;4.00;;
78116;SDS011;69042;59.120;37.904;2023-05-23T14:45:05;7.20;;;3.33;;
78116;SDS011;69042;59.120;37.904;2023-05-23T14:47:32;9.00;;;3.60;;
78116;SDS011;69042;59.120;37.904;2023-05-23T14:49:58;10.98;;;3.28;;
78116;SDS011;69042;59.120;37.904;2023-05-23T14:52:25;10.13;;;3.83;;
78116;SDS011;69042;59.120;37.904;2023-05-23T14:54:51;14.73;;;4.18;;
78116;SDS011;69042;59.120;37.904;2023-05-23T14:57:17;11.32;;;4.10;;
78116;SDS011;69042;59.120;37.904;2023-05-23T14:59:44;12.75;;;4.60;;
78116;SDS011;69042;59.120;37.904;2023-05-23T15:02:11;10.55;;;4.60;;
78116;SDS011;69042;59.120;37.904;2023-05-23T15:04:37;9.15;;;3.80;;
78116;SDS011;69042;59.120;37.904;2023-05-23T15:07:04;12.75;;;4.47;;
78116;SDS011;69042;59.120;37.904;2023-05-23T15:09:30;9.70;;;4.40;;
78116;SDS011;69042;59.120;37.904;2023-05-23T15:11:57;13.50;;;4.72;;
78116;SDS011;69042;59.120;37.904;2023-05-23T15:14:24;10.32;;;4.30;;
78116;SDS011;69042;59.120;37.904;2023-05-23T15:16:54;8.57;;;3.67;;
78116;SDS011;69042;59.120;37.904;2023-05-23T15:19:21;11.50;;;4.20;;
78116;SDS011;69042;59.120;37.904;2023-05-23T15:21:47;12.20;;;4.13;;
78116;SDS011;69042;59.120;37.904;2023-05-23T15:24:13;11.52;;;4.45;;
78116;SDS011;69042;59.120;37.904;2023-05-23T15:26:40;13.50;;;4.50;;
78116;SDS011;69042;59.120;37.904;2023-05-23T15:29:06;15.20;;;5.13;;
78116;SDS011;69042;59.120;37.904;2023-05-23T15:31:32;12.15;;;5.63;;
78116;SDS011;69042;59.120;37.904;2023-05-23T15:33:58;20.48;;;7.75;;
78116;SDS011;69042;59.120;37.904;2023-05-23T15:36:25;10.98;;;4.38;;
78116;SDS011;69042;59.120;37.904;2023-05-23T15:38:51;12.82;;;4.40;;
78116;SDS011;69042;59.120;37.904;2023-05-23T15:41:17;12.82;;;4.68;;
78116;SDS011;69042;59.120;37.904;2023-05-23T15:43:44;9.85;;;4.55;;
78116;SDS011;69042;59.120;37.904;2023-05-23T15:46:10;12.63;;;5.35;;
78116;SDS011;69042;59.120;37.904;2023-05-23T15:48:36;12.43;;;6.22;;
78116;SDS011;69042;59.120;37.904;2023-05-23T15:51:03;12.38;;;5.82;;
78116;SDS011;69042;59.120;37.904;2023-05-23T15:53:30;12.73;;;5.97;;
78116;SDS011;69042;59.120;37.904;2023-05-23T15:55:56;11.30;;;6.18;;
78116;SDS011;69042;59.120;37.904;2023-05-23T15:58:22;12.52;;;6.45;;
78116;SDS011;69042;59.120;37.904;2023-05-23T16:00:49;12.82;;;6.45;;
78116;SDS011;69042;59.120;37.904;2023-05-23T16:03:15;11.77;;;6.43;;
78116;SDS011;69042;59.120;37.904;2023-05-23T16:05:41;12.82;;;6.10;;
78116;SDS011;69042;59.120;37.904;2023-05-23T16:08:07;11.32;;;6.07;;
78116;SDS011;69042;59.120;37.904;2023-05-23T16:10:34;12.23;;;6.38;;
78116;SDS011;69042;59.120;37.904;2023-05-23T16:13:00;12.10;;;6.25;;
78116;SDS011;69042;59.120;37.904;2023-05-23T16:15:27;12.05;;;6.80;;
78116;SDS011;69042;59.120;37.904;2023-05-23T16:17:53;12.63;;;5.38;;
78116;SDS011;69042;59.120;37.904;2023-05-23T16:20:19;11.13;;;5.25;;
78116;SDS011;69042;59.120;37.904;2023-05-23T16:22:47;13.18;;;5.53;;
78116;SDS011;69042;59.120;37.904;2023-05-23T16:25:13;10.50;;;6.15;;
78116;SDS011;69042;59.120;37.904;2023-05-23T16:27:40;10.65;;;5.75;;
78116;SDS011;69042;59.120;37.904;2023-05-23T16:30:08;8.82;;;5.40;;
78116;SDS011;69042;59.120;37.904;2023-05-23T16:32:34;10.27;;;5.03;;
78116;SDS011;69042;59.120;37.904;2023-05-23T16:35:01;7.78;;;4.03;;
78116;SDS011;69042;59.120;37.904;2023-05-23T16:37:27;10.07;;;4.70;;
78116;SDS011;69042;59.120;37.904;2023-05-23T16:39:54;6.82;;;4.18;;
78116;SDS011;69042;59.120;37.904;2023-05-23T16:42:20;7.53;;;4.28;;
78116;SDS011;69042;59.120;37.904;2023-05-23T16:44:47;10.20;;;4.30;;
78116;SDS011;69042;59.120;37.904;2023-05-23T16:47:13;7.57;;;3.97;;